Flight Track Log - Related Links

Times and Time Zones

All times are in EDT time to prevent confusion due to time zone crossing. See the N560CG flight status page for this flight to view local times or setup timezone preferences in your user account.


Time Position Orientation Groundspeed Altitude Reporting Facility
EDT Latitude Longitude Course Direction KTS MPH feet Rate Location/Type
Wed 02:52:30 PM 33.1167 -117.3833 270° West 253 291 3,600  Level Southern California TRACON
Wed 02:53:25 PM 33.1658 -117.4114 334° Northwest 254 292 5,800 1,282 Climbing Los Angeles Center
Wed 02:54:27 PM 33.2153 -117.3611 40° Northeast 251 289 6,100 97 Climbing Los Angeles Center
Wed 02:55:29 PM 33.2439 -117.2658 70° East 254 292 6,000 871 Descending Los Angeles Center
Wed 02:56:31 PM 33.2653 -117.1808 73° East 267 307 7,900 1,984 Climbing Los Angeles Center
Wed 02:57:33 PM 33.2989 -117.0917 66° East 283 326 10,100 2,032 Climbing Los Angeles Center
Wed 02:58:35 PM 33.3328 -116.9992 66° East 295 339 12,100 1,920 Climbing Los Angeles Center
Wed 02:59:38 PM 33.3661 -116.9025 68° East 311 358 14,100 2,016 Climbing Los Angeles Center
Wed 03:00:40 PM 33.4081 -116.7850 67° East 316 364 16,300 2,129 Climbing Los Angeles Center
Wed 03:01:42 PM 33.4444 -116.6847 66° East 320 368 18,500 1,984 Climbing Los Angeles Center
Wed 03:02:44 PM 33.4806 -116.5806 67° East 331 381 20,400 1,872 Climbing Los Angeles Center
Wed 03:03:47 PM 33.5186 -116.4719 67° East 343 395 22,400 1,694 Climbing Los Angeles Center
Wed 03:04:48 PM 33.5578 -116.3619 67° East 352 405 23,900 1,500 Climbing Los Angeles Center
Wed 03:05:51 PM 33.6203 -116.2617 53° Northeast 371 427 25,500 1,584 Climbing Los Angeles Center
Wed 03:06:53 PM 33.7011 -116.1414 51° Northeast 379 436 27,200 1,306 Climbing Los Angeles Center
Wed 03:07:55 PM 33.7697 -116.0369 52° Northeast 387 445 28,200 968 Climbing Los Angeles Center
Wed 03:08:57 PM 33.8411 -115.9242 53° Northeast 407 468 29,200 968 Climbing Los Angeles Center
Wed 03:09:59 PM 33.9161 -115.8111 51° Northeast 420 483 30,200 968 Climbing Los Angeles Center
Wed 03:11:01 PM 33.9900 -115.6939 53° Northeast 433 498 31,200 968 Climbing Los Angeles Center
Wed 03:12:03 PM 34.0653 -115.5786 52° Northeast 437 503 32,200 1,056 Climbing Los Angeles Center
Wed 03:13:06 PM 34.1550 -115.4381 52° Northeast 437 503 33,400 1,056 Climbing Los Angeles Center
Wed 03:14:08 PM 34.2311 -115.3217 52° Northeast 437 503 34,400 968 Climbing Los Angeles Center
Wed 03:15:10 PM 34.3056 -115.2050 52° Northeast 437 503 35,400 968 Climbing Los Angeles Center
Wed 03:16:12 PM 34.3789 -115.0869 53° Northeast 438 504 36,400 968 Climbing Los Angeles Center
Wed 03:17:14 PM 34.4533 -114.9706 52° Northeast 438 504 37,400 968 Climbing Los Angeles Center
Wed 03:18:16 PM 34.5269 -114.8544 52° Northeast 437 503 38,400 1,016 Climbing Los Angeles Center
Wed 03:19:18 PM 34.6139 -114.7153 53° Northeast 436 502 39,500 871 Climbing Los Angeles Center
Wed 03:20:20 PM 34.6864 -114.6019 52° Northeast 435 501 40,200 581 Climbing Los Angeles Center
Wed 03:21:22 PM 34.7597 -114.4819 53° Northeast 437 503 40,700 384 Climbing Los Angeles Center
Wed 03:22:25 PM 34.8189 -114.3508 61° Northeast 439 505 41,000 144 Climbing Los Angeles Center
Wed 03:23:27 PM 34.8794 -114.2164 61° Northeast 449 517 41,000  Level Los Angeles Center
Wed 03:24:29 PM 34.9528 -114.0494 62° Northeast 462 532 41,000  Level Los Angeles Center
Wed 03:25:31 PM 35.0044 -113.9292 62° Northeast 469 540 41,000  Level Los Angeles Center
Wed 03:26:33 PM 35.0800 -113.7572 62° Northeast 475 547 41,000  Level Los Angeles Center
Wed 03:27:35 PM 35.1431 -113.6128 62° Northeast 479 551 41,000  Level Los Angeles Center
Wed 03:28:37 PM 35.2056 -113.4669 62° Northeast 482 555 41,000  Level Los Angeles Center
Wed 03:29:39 PM 35.2689 -113.3214 62° Northeast 482 555 41,000  Level Los Angeles Center
Wed 03:30:41 PM 35.3411 -113.1533 62° Northeast 483 556 41,000  Level Los Angeles Center
Wed 03:31:43 PM 35.4044 -113.0058 62° Northeast 486 559 41,000  Level Los Angeles Center
Wed 03:32:45 PM 35.4642 -112.8600 63° Northeast 487 560 41,000  Level Los Angeles Center
Wed 03:33:47 PM 35.5267 -112.7128 62° Northeast 488 562 41,000  Level Los Angeles Center
Wed 03:34:49 PM 35.5981 -112.5414 63° Northeast 489 563 41,000  Level Los Angeles Center
Wed 03:35:51 PM 35.6603 -112.3922 63° Northeast 489 563 41,000  Level Los Angeles Center
Wed 03:36:53 PM 35.7219 -112.2447 63° Northeast 487 560 41,000  Level Los Angeles Center
Wed 03:37:55 PM 35.7839 -112.0969 63° Northeast 489 563 41,000  Level Los Angeles Center
Wed 03:38:58 PM 35.8458 -111.9475 63° Northeast 489 563 41,000  Level Los Angeles Center
Wed 03:40:00 PM 35.9056 -111.7964 64° Northeast 489 563 41,000  Level Los Angeles Center
Wed 03:41:02 PM 35.9811 -111.6164 63° Northeast 486 559 41,000  Level Los Angeles Center
Wed 03:42:04 PM 36.0419 -111.4650 64° Northeast 491 565 41,000  Level Los Angeles Center
Wed 03:43:06 PM 36.1017 -111.3153 64° Northeast 489 563 41,000  Level Los Angeles Center
Wed 03:44:08 PM 36.1764 -111.1789 56° Northeast 486 559 41,000  Level Los Angeles Center
Wed 03:45:11 PM 36.2589 -111.0492 52° Northeast 484 557 41,000  Level Los Angeles Center
Wed 03:46:13 PM 36.3567 -110.8900 53° Northeast 484 557 41,000  Level Los Angeles Center
Wed 03:47:36 PM 36.4553 -110.7328 52° Northeast 486 559 41,000  Level Denver Center
Wed 03:48:38 PM 36.5522 -110.5747 53° Northeast 486 559 41,000  Level Denver Center
Wed 03:49:40 PM 36.6328 -110.4428 53° Northeast 485 558 41,000  Level Denver Center
Wed 03:50:42 PM 36.7136 -110.3086 53° Northeast 485 558 41,000  Level Denver Center
Wed 03:51:44 PM 36.7944 -110.1778 52° Northeast 483 556 41,000  Level Denver Center
Wed 03:52:46 PM 36.8753 -110.0442 53° Northeast 483 556 41,000  Level Denver Center
Wed 03:53:48 PM 36.9556 -109.9106 53° Northeast 483 556 41,000  Level Denver Center
Wed 03:54:50 PM 37.0414 -109.7703 53° Northeast 482 555 41,000  Level Denver Center
Wed 03:55:52 PM 37.1203 -109.6308 55° Northeast 483 556 41,000  Level Denver Center
Wed 03:56:54 PM 37.2106 -109.4825 53° Northeast 479 551 41,000  Level Denver Center
Wed 03:57:55 PM 37.2983 -109.3375 53° Northeast 478 550 41,000  Level Denver Center
Wed 03:58:57 PM 37.3739 -109.2086 54° Northeast 480 552 41,000  Level Denver Center
Wed 03:59:59 PM 37.4614 -109.0575 54° Northeast 478 550 41,000  Level Denver Center
Wed 04:01:01 PM 37.5372 -108.9306 53° Northeast 477 549 41,000  Level Denver Center
Wed 04:02:03 PM 37.6242 -108.7792 54° Northeast 478 550 41,000  Level Denver Center
Wed 04:03:05 PM 37.6997 -108.6494 54° Northeast 478 550 41,000  Level Denver Center
Wed 04:04:07 PM 37.7881 -108.4964 54° Northeast 479 551 41,000  Level Denver Center
Wed 04:05:09 PM 37.8619 -108.3689 54° Northeast 479 551 41,000  Level Denver Center
Wed 04:06:11 PM 37.9503 -108.2186 53° Northeast 476 548 41,000  Level Denver Center
Wed 04:07:13 PM 38.0242 -108.0861 55° Northeast 476 548 41,000  Level Denver Center
Wed 04:08:15 PM 38.1119 -107.9294 55° Northeast 482 555 41,000  Level Denver Center
Wed 04:09:18 PM 38.1867 -107.7989 54° Northeast 483 556 41,000  Level Denver Center
Wed 04:10:20 PM 38.2614 -107.6669 54° Northeast 482 555 41,000  Level Denver Center
Wed 04:11:22 PM 38.3464 -107.5139 55° Northeast 479 551 41,000  Level Denver Center
Wed 04:12:24 PM 38.4203 -107.3814 55° Northeast 478 550 41,000  Level Denver Center
Wed 04:13:26 PM 38.5061 -107.2286 54° Northeast 478 550 41,000  Level Denver Center
Wed 04:14:28 PM 38.5781 -107.0994 55° Northeast 477 549 41,000  Level Denver Center
Wed 04:15:30 PM 38.6544 -106.9583 55° Northeast 479 551 41,000  Level Denver Center
Wed 04:16:31 PM 38.7306 -106.8217 54° Northeast 478 550 41,000  Level Denver Center
Wed 04:17:33 PM 38.8211 -106.6561 55° Northeast 476 548 41,000  Level Denver Center
Wed 04:18:35 PM 38.8944 -106.5208 55° Northeast 476 548 41,000  Level Denver Center
Wed 04:19:37 PM 38.9786 -106.3633 55° Northeast 477 549 41,000  Level Denver Center
Wed 04:20:39 PM 39.0511 -106.2300 55° Northeast 477 549 41,000  Level Denver Center
Wed 04:21:41 PM 39.1317 -106.0803 55° Northeast 477 549 41,000  Level Denver Center
Wed 04:22:43 PM 39.2067 -105.9403 55° Northeast 477 549 41,000  Level Denver Center
Wed 04:23:45 PM 39.2817 -105.7994 55° Northeast 476 548 41,000  Level Denver Center
Wed 04:24:47 PM 39.3558 -105.6592 56° Northeast 475 547 41,000  Level Denver Center
Wed 04:25:49 PM 39.4439 -105.5350 47° Northeast 472 543 41,000  Level Denver Center
Wed 04:26:51 PM 39.5556 -105.3961 44° Northeast 466 536 41,000  Level Denver Center
Wed 04:27:52 PM 39.6514 -105.2847 42° Northeast 461 531 41,000  Level Denver Center
Wed 04:28:54 PM 39.7458 -105.1697 43° Northeast 462 532 41,000  Level Denver Center
Wed 04:29:56 PM 39.8369 -105.0536 44° Northeast 457 526 41,000  Level Denver Center
Wed 04:30:58 PM 39.9150 -104.9169 53° Northeast 463 533 41,000  Level Denver Center
Wed 04:32:00 PM 39.9892 -104.7758 56° Northeast 469 540 41,000  Level Denver Center
Wed 04:33:02 PM 40.0611 -104.6350 56° Northeast 468 539 41,000  Level Denver Center
Wed 04:34:04 PM 40.1342 -104.4942 56° Northeast 467 537 41,000  Level Denver Center
Wed 04:35:06 PM 40.2208 -104.3242 56° Northeast 467 537 41,000  Level Denver Center
Wed 04:36:08 PM 40.2919 -104.1839 56° Northeast 467 537 41,000  Level Denver Center
Wed 04:37:10 PM 40.3642 -104.0414 56° Northeast 466 536 41,000  Level Denver Center
Wed 04:38:11 PM 40.4364 -103.9028 56° Northeast 465 535 41,000  Level Denver Center
Wed 04:39:13 PM 40.5072 -103.7606 57° Northeast 465 535 41,000  Level Denver Center
Wed 04:40:15 PM 40.5786 -103.6200 56° Northeast 464 534 41,000  Level Denver Center
Wed 04:41:17 PM 40.6492 -103.4783 57° Northeast 461 531 41,000  Level Denver Center
Wed 04:42:19 PM 40.7336 -103.3078 57° Northeast 462 532 41,000  Level Denver Center
Wed 04:43:21 PM 40.8050 -103.1669 56° Northeast 462 532 41,000  Level Denver Center
Wed 04:44:23 PM 40.8736 -103.0244 57° Northeast 462 532 41,000  Level Denver Center
Wed 04:45:25 PM 40.9472 -102.8758 57° Northeast 462 532 41,000  Level Denver Center
Wed 04:46:27 PM 41.0136 -102.7394 57° Northeast 462 532 41,000  Level Denver Center
Wed 04:47:29 PM 41.0931 -102.5783 57° Northeast 463 533 41,000  Level Denver Center
Wed 04:48:31 PM 41.1597 -102.4397 57° Northeast 463 533 41,000  Level Denver Center
Wed 04:49:33 PM 41.2369 -102.2778 58° Northeast 463 533 41,000  Level Denver Center
Wed 04:50:35 PM 41.3056 -102.1367 57° Northeast 467 537 41,000  Level Denver Center
Wed 04:51:37 PM 41.3836 -101.9739 57° Northeast 467 537 41,000  Level Denver Center
Wed 04:52:39 PM 41.4506 -101.8328 58° Northeast 467 537 41,000  Level Denver Center
Wed 04:53:41 PM 41.5283 -101.6678 58° Northeast 468 539 41,000  Level Denver Center
Wed 04:54:43 PM 41.5942 -101.5269 58° Northeast 467 537 41,000  Level Denver Center
Wed 04:55:45 PM 41.6614 -101.3842 58° Northeast 469 540 41,000  Level Denver Center
Wed 04:56:47 PM 41.7386 -101.2178 58° Northeast 470 541 41,000  Level Denver Center
Wed 04:57:49 PM 41.8044 -101.0750 58° Northeast 470 541 41,000  Level Denver Center
Wed 04:58:51 PM 41.8808 -100.9075 58° Northeast 470 541 41,000  Level Denver Center
Wed 04:59:54 PM 41.9458 -100.7658 58° Northeast 469 540 41,000  Level Denver Center
Wed 05:00:56 PM 42.0222 -100.5986 58° Northeast 468 539 41,000  Level Denver Center
Wed 05:01:58 PM 42.0872 -100.4542 59° Northeast 468 539 41,000  Level Denver Center
Wed 05:03:00 PM 42.1625 -100.2872 59° Northeast 468 539 41,000  Level Denver Center
Wed 05:04:02 PM 42.2264 -100.1419 59° Northeast 468 539 41,000  Level Denver Center
Wed 05:05:04 PM 42.3017 -99.9772 58° Northeast 467 537 41,000  Level Denver Center
Wed 05:06:06 PM 42.3656 -99.8328 59° Northeast 466 536 41,000  Level Denver Center
Wed 05:07:08 PM 42.4386 -99.6664 59° Northeast 469 540 41,000  Level Denver Center
Wed 05:08:10 PM 42.5058 -99.5158 59° Northeast 469 540 41,000  Level Denver Center
Wed 05:09:12 PM 42.5725 -99.3628 59° Northeast 469 540 41,000  Level Denver Center
Wed 05:10:14 PM 42.6386 -99.2094 60° Northeast 469 540 41,000  Level Denver Center
Wed 05:11:17 PM 42.7047 -99.0556 60° Northeast 469 540 41,000  Level Denver Center
Wed 05:12:19 PM 42.7714 -98.9031 59° Northeast 469 540 41,000  Level Denver Center
Wed 05:13:43 PM 42.8636 -98.6869 60° Northeast 469 540 41,000  Level Minneapolis Center
Wed 05:14:45 PM 42.9419 -98.5039 60° Northeast 469 540 41,000  Level Minneapolis Center
Wed 05:15:47 PM 43.0064 -98.3500 61° Northeast 468 539 41,000  Level Minneapolis Center
Wed 05:16:00 PM 43.0146 -98.3263 61° Northeast  Level FlightAware Approximate
Wed 05:16:50 PM 43.0714 -98.1944 60° Northeast 467 537 41,000  Level Minneapolis Center
Wed 05:17:52 PM 43.1350 -98.0414 60° Northeast 467 537 41,000  Level Minneapolis Center
Wed 05:18:54 PM 43.2014 -97.8825 60° Northeast 465 535 41,000  Level Minneapolis Center
Wed 05:19:56 PM 43.2650 -97.7306 60° Northeast 464 534 41,000  Level Minneapolis Center
Wed 05:20:58 PM 43.3283 -97.5753 61° Northeast 463 533 41,000  Level Minneapolis Center
Wed 05:22:00 PM 43.3919 -97.4186 61° Northeast 464 534 41,000  Level Minneapolis Center
Wed 05:23:02 PM 43.4675 -97.2336 61° Northeast 462 532 41,000  Level Minneapolis Center
Wed 05:24:04 PM 43.5403 -97.0911 55° Northeast 458 527 41,000  Level Minneapolis Center
Wed 05:25:06 PM 43.6261 -96.9583 48° Northeast 461 531 41,000  Level Minneapolis Center
Wed 05:26:08 PM 43.7108 -96.8264 48° Northeast 460 529 41,000  Level Minneapolis Center
Wed 05:27:10 PM 43.8028 -96.6833 48° Northeast 461 531 41,000  Level Minneapolis Center
Wed 05:28:13 PM 43.8883 -96.5494 48° Northeast 462 532 41,000 -528 Level Minneapolis Center
Wed 05:29:15 PM 43.9731 -96.4158 49° Northeast 462 532 39,900 -1,500 Descending Minneapolis Center
Wed 05:30:17 PM 44.0578 -96.2825 48° Northeast 462 532 37,900 -2,081 Descending Minneapolis Center
Wed 05:31:19 PM 44.1564 -96.1269 49° Northeast 454 522 35,600 -2,177 Descending Minneapolis Center
Wed 05:32:21 PM 44.2372 -95.9978 49° Northeast 447 514 33,400 -2,081 Descending Minneapolis Center
Wed 05:33:23 PM 44.3192 -95.8664 49° Northeast 447 514 31,300 -2,081 Descending Minneapolis Center
Wed 05:34:25 PM 44.4011 -95.7347 49° Northeast 447 514 29,100 -2,177 Descending Minneapolis Center
Wed 05:35:27 PM 44.4828 -95.6039 49° Northeast 448 516 26,800 -2,226 Descending Minneapolis Center
Wed 05:36:29 PM 44.5633 -95.4736 49° Northeast 447 514 24,500 -2,352 Descending Minneapolis Center
Wed 05:37:32 PM 44.6217 -95.2844 67° East 446 513 21,900 -2,256 Descending Minneapolis Center
Wed 05:38:34 PM 44.6550 -95.1236 74° East 441 507 19,800 -1,984 Descending Minneapolis Center
Wed 05:39:36 PM 44.6869 -94.9669 74° East 430 495 17,800 -1,887 Descending Minneapolis Center
Wed 05:40:38 PM 44.7175 -94.8183 74° East 415 478 15,900 -1,742 Descending Minneapolis Center
Wed 05:41:40 PM 44.7444 -94.6831 74° East 385 443 14,200 -1,597 Descending Minneapolis Center
Wed 05:42:42 PM 44.7711 -94.5544 74° East 352 405 12,600 -1,597 Descending Minneapolis Center
Wed 05:43:44 PM 44.8031 -94.4028 73° East 338 389 10,900 -1,548 Descending Minneapolis Center
Wed 05:44:46 PM 44.8383 -94.2919 66° East 310 357 9,400 -1,306 Descending Minneapolis Center
Wed 05:45:48 PM 44.8606 -94.1869 73° East 282 325 8,200 -1,210 Descending Minneapolis Center
Wed 05:46:50 PM 44.8883 -94.0900 68° East 270 311 6,900 -1,210 Descending Minneapolis Center
Wed 05:47:52 PM 44.9192 -93.9961 65° Northeast 265 305 5,700 -919 Descending Minneapolis Center
Wed 05:48:54 PM 44.8944 -93.9014 110° East 258 297 5,000 -339 Descending Minneapolis Center
Wed 05:49:56 PM 44.8561 -93.8019 119° Southeast 244 281 5,000 48 Level Minneapolis Center
Wed 05:50:58 PM 44.8228 -93.7150 118° Southeast 250 288 5,100  Climbing Minneapolis Center
Wed 05:52:00 PM 44.7897 -93.6278 118° Southeast 251 289 5,000  Descending Minneapolis Center
Wed 05:53:02 PM 44.7847 -93.5333 94° East 248 285 5,100 -145 Climbing Minneapolis Center
Wed 05:54:04 PM 44.7975 -93.4403 79° East 248 285 4,700 -484 Descending Minneapolis Center
Wed 05:55:06 PM 44.8464 -93.3628 48° Northeast 260 299 4,100 -339 Descending Minneapolis Center
Wed 05:56:08 PM 44.8944 -93.2869 48° Northeast 259 298 4,000 -145 Descending Minneapolis Center
Wed 05:57:10 PM 44.9400 -93.2167 48° Northeast 243 280 3,800 -629 Descending Minneapolis Center
Wed 05:58:12 PM 44.9761 -93.1350 58° Northeast 197 227 2,700 -1,113 Descending Minneapolis Center
Wed 05:59:14 PM 44.9650 -93.0903 109° East 142 163 1,500 -726 Descending Minneapolis Center
Wed 06:00:16 PM 44.9369 -93.0650 147° Southeast 135 155 1,200 -290 Descending Minneapolis Center
Wed 06:02:00 PM 44.9333 -93.0500 133° Southeast  Level FlightAware Approximate

Login

Don't have an account? Register now (free) for customized features, flight alerts, and more!